Terminal Aerodrome Forecast
Issued by NWS

Home | Current Version | Previous Version | Graphics & Text | Print | Product List | Glossary On
Versions: 1 2 3 4 5 6 7 8 9 10 11 12 13 14 15 16 17 18 19 20
000
FTUS43 KABR 251505 AAC
TAFPIR
TAF AMD
KPIR 251505Z 2515/2612 31015KT P6SM VCSH OVC100
     FM251800 30015KT P6SM BKN200
     FM260200 31009KT P6SM BKN250=

USA.gov is the U.S. government's official web portal to all federal, state and local government web resources and services.